Current | Forecast
Updated: 4:12 PM JST on April 26, 2018
Observed at Shimofusa AB, Japan
Temperature 70°F
Humidity 56%
Dew Point 54°F
Wind SE at 12 mph
Wind Gust 23 mph
Pressure 29.83 in (Rising)
Conditions Mostly Cloudy
Visibility 6.2 miles
UV 1 out of 16
Clouds (FEW) : 3000 ft
Mostly Cloudy (BKN) : 23000 ft
Yesterday's Maximum 68°F
Yesterday's Minimum 59°F approx.
Yesterday's Heating Degree Days 2 approx.
Sunrise4:54 AM JST
Sunset6:23 PM JST
Moon Rise2:26 PM JST
Moon Set2:51 AM JST
Moon PhaseMoon Phase
Waxing Gibbous
Raw METARSPECI RJTL 260712Z 14010G20KT 100V170 9999 FEW030 BKN230 21/12 Q1010 RMK 1CU030 A2985


Monday
. High: 77° F.
Tuesday
. High: 77° F.
Wednesday
. High: 66° F.
Thursday
. High: 73° F.
Friday
. High: 75° F.
Saturday
. High: 75° F.
Sunday
. High: 75° F.
Monday
. High: 71° F.

Units: English | Metric

Find the Weather for any City, State or Zipcode, or Country:

U.S. State List | Severe Weather | Tropical Storms | Ski Conditions
United States | Canada | Central America | South America | Asia | Europe | Australia | Africa | Islands

Weather Underground

© Copyright 2018
The Weather Company, LLC